sensor_id;sensor_type;location;lat;lon;timestamp;pressure;altitude;pressure_sealevel;temperature;humidity
33422;BME280;19763;55.798;37.782;2023-01-31T00:01:14;147118.75;;;-0.85;85.79
33422;BME280;19763;55.798;37.782;2023-01-31T00:03:40;147149.25;;;-0.73;85.59
33422;BME280;19763;55.798;37.782;2023-01-31T00:06:18;147094.59;;;-0.95;85.24
33422;BME280;19763;55.798;37.782;2023-01-31T00:08:45;147137.78;;;-0.77;86.74
33422;BME280;19763;55.798;37.782;2023-01-31T00:11:11;147140.34;;;-0.76;86.35
33422;BME280;19763;55.798;37.782;2023-01-31T00:13:37;147156.88;;;-0.70;86.01
33422;BME280;19763;55.798;37.782;2023-01-31T00:16:03;147164.50;;;-0.66;85.48
33422;BME280;19763;55.798;37.782;2023-01-31T00:18:29;147169.56;;;-0.64;85.11
33422;BME280;19763;55.798;37.782;2023-01-31T00:20:54;147133.97;;;-0.79;85.61
33422;BME280;19763;55.798;37.782;2023-01-31T00:23:20;147147.97;;;-0.73;85.35
33422;BME280;19763;55.798;37.782;2023-01-31T00:25:47;147127.63;;;-0.81;86.03
33422;BME280;19763;55.798;37.782;2023-01-31T00:28:12;147160.69;;;-0.68;86.19
33422;BME280;19763;55.798;37.782;2023-01-31T00:30:38;147094.59;;;-0.95;85.73
33422;BME280;19763;55.798;37.782;2023-01-31T00:33:03;147127.63;;;-0.81;85.19
33422;BME280;19763;55.798;37.782;2023-01-31T00:35:29;147135.28;;;-0.78;85.57
33422;BME280;19763;55.798;37.782;2023-01-31T00:37:54;147126.38;;;-0.82;86.44
33422;BME280;19763;55.798;37.782;2023-01-31T00:40:20;147150.50;;;-0.72;86.56
33422;BME280;19763;55.798;37.782;2023-01-31T00:42:45;147123.81;;;-0.83;85.43
33422;BME280;19763;55.798;37.782;2023-01-31T00:45:11;147128.91;;;-0.81;85.95
33422;BME280;19763;55.798;37.782;2023-01-31T00:47:37;147183.53;;;-0.59;86.23
33422;BME280;19763;55.798;37.782;2023-01-31T00:50:03;147188.63;;;-0.57;85.34
33422;BME280;19763;55.798;37.782;2023-01-31T00:52:29;147150.50;;;-0.72;85.45
33422;BME280;19763;55.798;37.782;2023-01-31T00:54:55;147175.91;;;-0.62;85.66
33422;BME280;19763;55.798;37.782;2023-01-31T00:57:20;147172.09;;;-0.63;85.89
33422;BME280;19763;55.798;37.782;2023-01-31T00:59:46;147139.09;;;-0.77;85.14
33422;BME280;19763;55.798;37.782;2023-01-31T01:02:12;147202.63;;;-0.51;85.27
33422;BME280;19763;55.798;37.782;2023-01-31T01:04:37;147168.28;;;-0.65;84.80
33422;BME280;19763;55.798;37.782;2023-01-31T01:07:03;147154.31;;;-0.71;83.99
33422;BME280;19763;55.798;37.782;2023-01-31T01:09:28;147172.09;;;-0.63;84.88
33422;BME280;19763;55.798;37.782;2023-01-31T01:11:54;147182.28;;;-0.59;85.02
33422;BME280;19763;55.798;37.782;2023-01-31T01:14:19;147150.50;;;-0.72;84.58
33422;BME280;19763;55.798;37.782;2023-01-31T01:16:45;147181.03;;;-0.60;84.74
33422;BME280;19763;55.798;37.782;2023-01-31T01:19:13;147142.91;;;-0.75;84.43
33422;BME280;19763;55.798;37.782;2023-01-31T01:21:39;147201.31;;;-0.52;84.15
33422;BME280;19763;55.798;37.782;2023-01-31T01:24:10;147177.22;;;-0.61;84.71
33422;BME280;19763;55.798;37.782;2023-01-31T01:26:36;147226.78;;;-0.41;84.53
33422;BME280;19763;55.798;37.782;2023-01-31T01:29:02;147228.03;;;-0.41;84.45
33422;BME280;19763;55.798;37.782;2023-01-31T01:31:28;147250.88;;;-0.31;82.95
33422;BME280;19763;55.798;37.782;2023-01-31T01:33:56;147187.34;;;-0.57;84.01
33422;BME280;19763;55.798;37.782;2023-01-31T01:36:23;147196.25;;;-0.54;83.59
33422;BME280;19763;55.798;37.782;2023-01-31T01:38:50;147183.53;;;-0.59;84.02
33422;BME280;19763;55.798;37.782;2023-01-31T01:41:17;147193.69;;;-0.55;83.99
33422;BME280;19763;55.798;37.782;2023-01-31T01:43:47;147182.28;;;-0.59;83.29
33422;BME280;19763;55.798;37.782;2023-01-31T01:46:25;147208.97;;;-0.48;83.69
33422;BME280;19763;55.798;37.782;2023-01-31T01:49:29;147233.09;;;-0.39;84.05
33422;BME280;19763;55.798;37.782;2023-01-31T01:51:57;147188.63;;;-0.57;83.77
33422;BME280;19763;55.798;37.782;2023-01-31T01:54:32;147203.88;;;-0.50;83.83
33422;BME280;19763;55.798;37.782;2023-01-31T01:57:01;147203.88;;;-0.50;83.57
33422;BME280;19763;55.798;37.782;2023-01-31T02:01:54;147161.94;;;-0.67;83.09
33422;BME280;19763;55.798;37.782;2023-01-31T02:04:24;147221.66;;;-0.43;83.90
33422;BME280;19763;55.798;37.782;2023-01-31T02:06:52;147208.97;;;-0.48;83.18
33422;BME280;19763;55.798;37.782;2023-01-31T02:09:38;147177.22;;;-0.61;83.50
33422;BME280;19763;55.798;37.782;2023-01-31T02:12:08;147187.34;;;-0.57;83.10
33422;BME280;19763;55.798;37.782;2023-01-31T02:14:34;147210.22;;;-0.48;82.70
33422;BME280;19763;55.798;37.782;2023-01-31T02:17:20;147226.78;;;-0.41;83.37
33422;BME280;19763;55.798;37.782;2023-01-31T02:22:20;147205.13;;;-0.50;82.59
33422;BME280;19763;55.798;37.782;2023-01-31T02:33:45;147236.88;;;-0.37;83.85
33422;BME280;19763;55.798;37.782;2023-01-31T02:41:41;147198.81;;;-0.53;83.30
33422;BME280;19763;55.798;37.782;2023-01-31T02:44:20;147230.56;;;-0.40;83.08
33422;BME280;19763;55.798;37.782;2023-01-31T02:53:05;147228.03;;;-0.41;82.95
33422;BME280;19763;55.798;37.782;2023-01-31T02:55:43;147220.41;;;-0.44;82.29
33422;BME280;19763;55.798;37.782;2023-01-31T02:58:33;147219.09;;;-0.44;82.47
33422;BME280;19763;55.798;37.782;2023-01-31T03:01:02;147224.22;;;-0.42;82.26
33422;BME280;19763;55.798;37.782;2023-01-31T03:03:31;147179.72;;;-0.60;81.79
33422;BME280;19763;55.798;37.782;2023-01-31T03:09:02;147261.03;;;-0.27;82.33
33422;BME280;19763;55.798;37.782;2023-01-31T03:18:00;147187.34;;;-0.57;82.15
33422;BME280;19763;55.798;37.782;2023-01-31T03:20:36;147172.09;;;-0.63;83.00
33422;BME280;19763;55.798;37.782;2023-01-31T03:23:11;147202.63;;;-0.51;83.14
33422;BME280;19763;55.798;37.782;2023-01-31T03:25:38;147244.56;;;-0.34;83.03
33422;BME280;19763;55.798;37.782;2023-01-31T03:28:10;147243.25;;;-0.35;82.85
33422;BME280;19763;55.798;37.782;2023-01-31T03:30:58;147257.25;;;-0.29;81.66
33422;BME280;19763;55.798;37.782;2023-01-31T03:33:29;147234.38;;;-0.38;81.61
33422;BME280;19763;55.798;37.782;2023-01-31T03:36:04;147222.97;;;-0.43;81.60
33422;BME280;19763;55.798;37.782;2023-01-31T03:38:37;147182.28;;;-0.59;82.23
33422;BME280;19763;55.798;37.782;2023-01-31T03:41:13;147233.09;;;-0.39;82.41
33422;BME280;19763;55.798;37.782;2023-01-31T03:44:06;147245.81;;;-0.33;82.60
33422;BME280;19763;55.798;37.782;2023-01-31T03:46:41;147253.44;;;-0.30;82.81
33422;BME280;19763;55.798;37.782;2023-01-31T03:49:10;147247.06;;;-0.33;81.76
33422;BME280;19763;55.798;37.782;2023-01-31T03:51:41;147239.44;;;-0.36;81.92
33422;BME280;19763;55.798;37.782;2023-01-31T03:54:10;147245.81;;;-0.33;82.45
33422;BME280;19763;55.798;37.782;2023-01-31T03:57:04;147272.53;;;-0.23;81.87
33422;BME280;19763;55.798;37.782;2023-01-31T03:59:36;147236.88;;;-0.37;81.11
33422;BME280;19763;55.798;37.782;2023-01-31T04:02:03;147268.72;;;-0.24;82.10
33422;BME280;19763;55.798;37.782;2023-01-31T04:04:53;147255.97;;;-0.29;82.03
33422;BME280;19763;55.798;37.782;2023-01-31T04:07:21;147275.03;;;-0.22;81.54
33422;BME280;19763;55.798;37.782;2023-01-31T04:09:48;147247.06;;;-0.33;82.01
33422;BME280;19763;55.798;37.782;2023-01-31T04:12:14;147239.44;;;-0.36;82.20
33422;BME280;19763;55.798;37.782;2023-01-31T04:14:40;147230.56;;;-0.40;81.99
33422;BME280;19763;55.798;37.782;2023-01-31T04:17:06;147268.72;;;-0.24;81.90
33422;BME280;19763;55.798;37.782;2023-01-31T04:19:31;147252.19;;;-0.31;82.63
33422;BME280;19763;55.798;37.782;2023-01-31T04:21:57;147280.13;;;-0.20;82.36
33422;BME280;19763;55.798;37.782;2023-01-31T04:24:23;147313.16;;;-0.06;81.61
33422;BME280;19763;55.798;37.782;2023-01-31T04:26:49;147297.94;;;-0.12;81.53
33422;BME280;19763;55.798;37.782;2023-01-31T04:29:15;147278.84;;;-0.20;82.14
33422;BME280;19763;55.798;37.782;2023-01-31T04:31:40;147280.13;;;-0.20;80.99
33422;BME280;19763;55.798;37.782;2023-01-31T04:34:06;147287.75;;;-0.16;81.45
33422;BME280;19763;55.798;37.782;2023-01-31T04:36:32;147255.97;;;-0.29;82.20
33422;BME280;19763;55.798;37.782;2023-01-31T04:38:58;147275.03;;;-0.22;82.67
33422;BME280;19763;55.798;37.782;2023-01-31T04:41:25;147287.75;;;-0.16;81.86
33422;BME280;19763;55.798;37.782;2023-01-31T04:43:51;147280.13;;;-0.20;82.30
33422;BME280;19763;55.798;37.782;2023-01-31T04:46:17;147277.59;;;-0.21;82.53
33422;BME280;19763;55.798;37.782;2023-01-31T04:48:43;147280.13;;;-0.20;81.96
33422;BME280;19763;55.798;37.782;2023-01-31T04:51:08;147297.94;;;-0.12;81.66
33422;BME280;19763;55.798;37.782;2023-01-31T04:53:34;147327.16;;;-0.01;82.67
33422;BME280;19763;55.798;37.782;2023-01-31T04:56:00;147309.38;;;-0.08;82.08
33422;BME280;19763;55.798;37.782;2023-01-31T04:58:25;147294.13;;;-0.14;82.30
33422;BME280;19763;55.798;37.782;2023-01-31T05:00:52;147275.03;;;-0.22;82.05
33422;BME280;19763;55.798;37.782;2023-01-31T05:03:18;147308.09;;;-0.08;81.46
33422;BME280;19763;55.798;37.782;2023-01-31T05:05:47;147287.75;;;-0.16;82.25
33422;BME280;19763;55.798;37.782;2023-01-31T05:08:12;147287.75;;;-0.16;82.48
33422;BME280;19763;55.798;37.782;2023-01-31T05:10:38;147305.56;;;-0.09;81.88
33422;BME280;19763;55.798;37.782;2023-01-31T05:13:04;147310.63;;;-0.07;82.01
33422;BME280;19763;55.798;37.782;2023-01-31T05:15:29;147322.09;;;-0.03;82.07
33422;BME280;19763;55.798;37.782;2023-01-31T05:17:56;147306.81;;;-0.09;81.34
33422;BME280;19763;55.798;37.782;2023-01-31T05:20:31;147277.59;;;-0.21;82.06
33422;BME280;19763;55.798;37.782;2023-01-31T05:22:59;147276.34;;;-0.21;82.24
33422;BME280;19763;55.798;37.782;2023-01-31T05:25:25;147303.00;;;-0.10;82.62
33422;BME280;19763;55.798;37.782;2023-01-31T05:27:51;147336.06;;;0.03;82.42
33422;BME280;19763;55.798;37.782;2023-01-31T05:30:18;147290.31;;;-0.15;82.47
33422;BME280;19763;55.798;37.782;2023-01-31T05:32:43;147323.34;;;-0.02;82.38
33422;BME280;19763;55.798;37.782;2023-01-31T05:35:11;147344.97;;;0.07;81.65
33422;BME280;19763;55.798;37.782;2023-01-31T05:37:37;147330.97;;;0.01;81.91
33422;BME280;19763;55.798;37.782;2023-01-31T05:40:08;147310.63;;;-0.07;82.39
33422;BME280;19763;55.798;37.782;2023-01-31T05:42:36;147299.19;;;-0.12;83.22
33422;BME280;19763;55.798;37.782;2023-01-31T05:45:02;147290.31;;;-0.15;82.84
33422;BME280;19763;55.798;37.782;2023-01-31T05:47:28;147344.97;;;0.07;82.02
33422;BME280;19763;55.798;37.782;2023-01-31T05:49:54;147300.50;;;-0.11;81.79
33422;BME280;19763;55.798;37.782;2023-01-31T05:52:19;147314.47;;;-0.06;82.50
33422;BME280;19763;55.798;37.782;2023-01-31T05:54:45;147308.09;;;-0.08;82.83
33422;BME280;19763;55.798;37.782;2023-01-31T05:57:11;147314.47;;;-0.06;82.19
33422;BME280;19763;55.798;37.782;2023-01-31T05:59:38;147282.66;;;-0.19;83.23
33422;BME280;19763;55.798;37.782;2023-01-31T06:02:04;147328.47;;;0.00;83.03
33422;BME280;19763;55.798;37.782;2023-01-31T06:04:30;147342.41;;;0.06;83.36
33422;BME280;19763;55.798;37.782;2023-01-31T06:06:55;147329.72;;;0.01;83.32
33422;BME280;19763;55.798;37.782;2023-01-31T06:09:21;147322.09;;;-0.03;82.24
33422;BME280;19763;55.798;37.782;2023-01-31T06:11:46;147343.69;;;0.06;83.17
33422;BME280;19763;55.798;37.782;2023-01-31T06:14:12;147329.72;;;0.01;82.97
33422;BME280;19763;55.798;37.782;2023-01-31T06:16:37;147324.59;;;-0.02;83.49
33422;BME280;19763;55.798;37.782;2023-01-31T06:19:03;147341.16;;;0.05;83.20
33422;BME280;19763;55.798;37.782;2023-01-31T06:21:29;147366.56;;;0.15;82.55
33422;BME280;19763;55.798;37.782;2023-01-31T06:23:54;147344.97;;;0.07;82.92
33422;BME280;19763;55.798;37.782;2023-01-31T06:26:20;147338.59;;;0.04;82.49
33422;BME280;19763;55.798;37.782;2023-01-31T06:28:45;147306.81;;;-0.09;81.92
33422;BME280;19763;55.798;37.782;2023-01-31T06:31:11;147346.25;;;0.07;83.15
33422;BME280;19763;55.798;37.782;2023-01-31T06:33:37;147314.47;;;-0.06;83.26
33422;BME280;19763;55.798;37.782;2023-01-31T06:36:03;147329.72;;;0.01;82.72
33422;BME280;19763;55.798;37.782;2023-01-31T06:38:29;147311.91;;;-0.07;83.69
33422;BME280;19763;55.798;37.782;2023-01-31T06:40:55;147310.63;;;-0.07;83.83
33422;BME280;19763;55.798;37.782;2023-01-31T06:43:21;147353.88;;;0.10;83.15
33422;BME280;19763;55.798;37.782;2023-01-31T06:45:47;147380.56;;;0.21;83.50
33422;BME280;19763;55.798;37.782;2023-01-31T06:48:14;147361.50;;;0.13;82.20
33422;BME280;19763;55.798;37.782;2023-01-31T06:50:40;147337.34;;;0.04;83.09
33422;BME280;19763;55.798;37.782;2023-01-31T06:53:06;147341.16;;;0.05;83.18
33422;BME280;19763;55.798;37.782;2023-01-31T06:55:32;147386.91;;;0.24;82.91
33422;BME280;19763;55.798;37.782;2023-01-31T06:57:57;147352.56;;;0.10;82.33
33422;BME280;19763;55.798;37.782;2023-01-31T07:00:23;147348.75;;;0.08;82.99
33422;BME280;19763;55.798;37.782;2023-01-31T07:02:52;147361.50;;;0.13;82.79
33422;BME280;19763;55.798;37.782;2023-01-31T07:05:18;147348.75;;;0.08;82.28
33422;BME280;19763;55.798;37.782;2023-01-31T07:07:45;147379.28;;;0.21;82.40
33422;BME280;19763;55.798;37.782;2023-01-31T07:10:11;147393.28;;;0.26;82.42
33422;BME280;19763;55.798;37.782;2023-01-31T07:12:37;147390.72;;;0.25;82.97
33422;BME280;19763;55.798;37.782;2023-01-31T07:15:02;147409.84;;;0.33;81.86
33422;BME280;19763;55.798;37.782;2023-01-31T07:17:29;147407.28;;;0.32;82.52
33422;BME280;19763;55.798;37.782;2023-01-31T07:19:54;147432.69;;;0.42;82.40
33422;BME280;19763;55.798;37.782;2023-01-31T07:22:20;147420.00;;;0.37;82.17
33422;BME280;19763;55.798;37.782;2023-01-31T07:24:45;147394.53;;;0.27;82.31
33422;BME280;19763;55.798;37.782;2023-01-31T07:27:13;147384.38;;;0.23;82.08
33422;BME280;19763;55.798;37.782;2023-01-31T07:29:38;147399.66;;;0.29;82.11
33422;BME280;19763;55.798;37.782;2023-01-31T07:32:04;147404.72;;;0.31;82.67
33422;BME280;19763;55.798;37.782;2023-01-31T07:34:30;147420.00;;;0.37;82.06
33422;BME280;19763;55.798;37.782;2023-01-31T07:36:55;147433.94;;;0.43;82.18
33422;BME280;19763;55.798;37.782;2023-01-31T07:39:21;147378.03;;;0.20;81.80
33422;BME280;19763;55.798;37.782;2023-01-31T07:41:49;147374.22;;;0.19;81.89
33422;BME280;19763;55.798;37.782;2023-01-31T07:44:14;147411.09;;;0.33;82.40
33422;BME280;19763;55.798;37.782;2023-01-31T07:46:40;147411.09;;;0.33;82.14
33422;BME280;19763;55.798;37.782;2023-01-31T07:49:08;147436.50;;;0.44;82.43
33422;BME280;19763;55.798;37.782;2023-01-31T07:51:34;147455.63;;;0.51;81.82
33422;BME280;19763;55.798;37.782;2023-01-31T07:54:01;147416.16;;;0.36;82.16
33422;BME280;19763;55.798;37.782;2023-01-31T07:56:27;147449.25;;;0.49;81.89
33422;BME280;19763;55.798;37.782;2023-01-31T07:58:53;147414.91;;;0.35;81.90
33422;BME280;19763;55.798;37.782;2023-01-31T08:01:21;147444.13;;;0.47;82.17
33422;BME280;19763;55.798;37.782;2023-01-31T08:04:06;147399.66;;;0.29;82.20
33422;BME280;19763;55.798;37.782;2023-01-31T08:06:32;147395.84;;;0.27;82.29
33422;BME280;19763;55.798;37.782;2023-01-31T08:08:59;147380.56;;;0.21;82.01
33422;BME280;19763;55.798;37.782;2023-01-31T08:11:25;147417.47;;;0.36;82.36
33422;BME280;19763;55.798;37.782;2023-01-31T08:13:52;147395.84;;;0.27;82.30
33422;BME280;19763;55.798;37.782;2023-01-31T08:16:18;147416.16;;;0.36;81.68
33422;BME280;19763;55.798;37.782;2023-01-31T08:18:44;147446.69;;;0.48;82.56
33422;BME280;19763;55.798;37.782;2023-01-31T08:21:11;147444.13;;;0.47;81.89
33422;BME280;19763;55.798;37.782;2023-01-31T08:23:37;147470.88;;;0.58;82.17
33422;BME280;19763;55.798;37.782;2023-01-31T08:26:10;147454.31;;;0.51;81.79
33422;BME280;19763;55.798;37.782;2023-01-31T08:28:37;147478.50;;;0.61;81.77
33422;BME280;19763;55.798;37.782;2023-01-31T08:31:04;147468.31;;;0.57;81.38
33422;BME280;19763;55.798;37.782;2023-01-31T08:33:30;147486.13;;;0.64;81.53
33422;BME280;19763;55.798;37.782;2023-01-31T08:35:56;147456.88;;;0.52;81.99
33422;BME280;19763;55.798;37.782;2023-01-31T08:38:21;147472.13;;;0.58;81.51
33422;BME280;19763;55.798;37.782;2023-01-31T08:40:47;147488.69;;;0.65;82.04
33422;BME280;19763;55.798;37.782;2023-01-31T08:43:14;147440.31;;;0.45;81.25
33422;BME280;19763;55.798;37.782;2023-01-31T08:45:40;147432.69;;;0.42;81.59
33422;BME280;19763;55.798;37.782;2023-01-31T08:48:05;147493.75;;;0.67;81.51
33422;BME280;19763;55.798;37.782;2023-01-31T08:50:31;147463.25;;;0.55;81.01
33422;BME280;19763;55.798;37.782;2023-01-31T08:53:02;147470.88;;;0.58;81.90
33422;BME280;19763;55.798;37.782;2023-01-31T08:55:30;147469.63;;;0.57;80.60
33422;BME280;19763;55.798;37.782;2023-01-31T08:57:56;147447.94;;;0.48;81.64
33422;BME280;19763;55.798;37.782;2023-01-31T09:00:22;147473.44;;;0.59;80.78
33422;BME280;19763;55.798;37.782;2023-01-31T09:02:52;147473.44;;;0.59;80.94
33422;BME280;19763;55.798;37.782;2023-01-31T09:05:18;147507.72;;;0.73;80.94
33422;BME280;19763;55.798;37.782;2023-01-31T09:07:44;147479.75;;;0.61;81.02
33422;BME280;19763;55.798;37.782;2023-01-31T09:10:10;147511.59;;;0.74;80.88
33422;BME280;19763;55.798;37.782;2023-01-31T09:12:35;147502.66;;;0.71;80.68
33422;BME280;19763;55.798;37.782;2023-01-31T09:15:02;147514.09;;;0.75;80.84
33422;BME280;19763;55.798;37.782;2023-01-31T09:17:29;147534.47;;;0.83;81.33
33422;BME280;19763;55.798;37.782;2023-01-31T09:19:55;147572.66;;;0.99;80.36
33422;BME280;19763;55.798;37.782;2023-01-31T09:22:21;147498.84;;;0.69;80.64
33422;BME280;19763;55.798;37.782;2023-01-31T09:24:47;147515.41;;;0.76;80.76
33422;BME280;19763;55.798;37.782;2023-01-31T09:27:13;147510.28;;;0.74;80.43
33422;BME280;19763;55.798;37.782;2023-01-31T09:29:39;147553.53;;;0.91;80.64
33422;BME280;19763;55.798;37.782;2023-01-31T09:32:04;147512.84;;;0.75;80.10
33422;BME280;19763;55.798;37.782;2023-01-31T09:34:30;147558.66;;;0.93;80.28
33422;BME280;19763;55.798;37.782;2023-01-31T09:36:56;147561.22;;;0.94;80.56
33422;BME280;19763;55.798;37.782;2023-01-31T09:39:22;147505.22;;;0.72;80.20
33422;BME280;19763;55.798;37.782;2023-01-31T09:41:58;147539.53;;;0.85;80.06
33422;BME280;19763;55.798;37.782;2023-01-31T09:44:36;147520.47;;;0.78;80.67
33422;BME280;19763;55.798;37.782;2023-01-31T09:47:27;147544.66;;;0.88;80.50
33422;BME280;19763;55.798;37.782;2023-01-31T09:49:55;147575.22;;;1.00;79.91
33422;BME280;19763;55.798;37.782;2023-01-31T09:52:23;147563.72;;;0.95;80.03
33422;BME280;19763;55.798;37.782;2023-01-31T09:54:51;147585.34;;;1.04;80.31
33422;BME280;19763;55.798;37.782;2023-01-31T10:00:23;147599.34;;;1.10;79.50
33422;BME280;19763;55.798;37.782;2023-01-31T10:05:56;147577.72;;;1.01;80.43
33422;BME280;19763;55.798;37.782;2023-01-31T10:08:50;147612.09;;;1.15;79.91
33422;BME280;19763;55.798;37.782;2023-01-31T10:11:38;147595.53;;;1.08;80.12
33422;BME280;19763;55.798;37.782;2023-01-31T10:14:42;147617.22;;;1.17;80.13
33422;BME280;19763;55.798;37.782;2023-01-31T10:22:27;147531.91;;;0.82;79.68
33422;BME280;19763;55.798;37.782;2023-01-31T10:33:51;147628.66;;;1.22;79.25
33422;BME280;19763;55.798;37.782;2023-01-31T10:36:38;147633.72;;;1.24;79.84
33422;BME280;19763;55.798;37.782;2023-01-31T10:39:22;147605.72;;;1.12;80.26
33422;BME280;19763;55.798;37.782;2023-01-31T10:44:40;147645.16;;;1.28;79.19
33422;BME280;19763;55.798;37.782;2023-01-31T10:47:15;147638.84;;;1.26;80.06
33422;BME280;19763;55.798;37.782;2023-01-31T10:49:44;147656.66;;;1.33;78.96
33422;BME280;19763;55.798;37.782;2023-01-31T10:52:33;147666.84;;;1.37;78.99
33422;BME280;19763;55.798;37.782;2023-01-31T10:57:50;147688.47;;;1.46;78.96
33422;BME280;19763;55.798;37.782;2023-01-31T11:00:19;147664.28;;;1.36;78.63
33422;BME280;19763;55.798;37.782;2023-01-31T11:02:47;147656.66;;;1.33;79.40
33422;BME280;19763;55.798;37.782;2023-01-31T11:05:19;147623.53;;;1.19;78.66
33422;BME280;19763;55.798;37.782;2023-01-31T11:07:46;147688.47;;;1.46;78.44
33422;BME280;19763;55.798;37.782;2023-01-31T11:10:31;147693.53;;;1.48;78.77
33422;BME280;19763;55.798;37.782;2023-01-31T11:13:02;147682.09;;;1.43;78.16
33422;BME280;19763;55.798;37.782;2023-01-31T11:15:36;147675.72;;;1.41;79.04
33422;BME280;19763;55.798;37.782;2023-01-31T11:18:04;147661.72;;;1.35;79.12
33422;BME280;19763;55.798;37.782;2023-01-31T11:20:33;147640.09;;;1.26;78.54
33422;BME280;19763;55.798;37.782;2023-01-31T11:23:01;147671.91;;;1.39;78.66
33422;BME280;19763;55.798;37.782;2023-01-31T11:25:29;147601.91;;;1.11;78.97
33422;BME280;19763;55.798;37.782;2023-01-31T11:28:04;147633.72;;;1.24;78.83
33422;BME280;19763;55.798;37.782;2023-01-31T11:30:40;147640.09;;;1.26;79.62
33422;BME280;19763;55.798;37.782;2023-01-31T11:33:09;147613.34;;;1.15;78.85
33422;BME280;19763;55.798;37.782;2023-01-31T11:35:52;147669.34;;;1.38;78.80
33422;BME280;19763;55.798;37.782;2023-01-31T11:38:20;147654.09;;;1.32;78.71
33422;BME280;19763;55.798;37.782;2023-01-31T11:40:47;147615.91;;;1.16;78.86
33422;BME280;19763;55.798;37.782;2023-01-31T11:45:42;147655.34;;;1.32;79.04
33422;BME280;19763;55.798;37.782;2023-01-31T11:50:40;147655.34;;;1.32;78.96
33422;BME280;19763;55.798;37.782;2023-01-31T11:53:32;147665.53;;;1.36;78.79
33422;BME280;19763;55.798;37.782;2023-01-31T11:56:26;147664.28;;;1.36;78.72
33422;BME280;19763;55.798;37.782;2023-01-31T11:58:55;147635.03;;;1.24;78.67
33422;BME280;19763;55.798;37.782;2023-01-31T12:01:24;147660.47;;;1.34;78.70
33422;BME280;19763;55.798;37.782;2023-01-31T12:03:55;147635.03;;;1.24;78.26
33422;BME280;19763;55.798;37.782;2023-01-31T12:06:37;147697.34;;;1.49;78.10
33422;BME280;19763;55.798;37.782;2023-01-31T12:09:20;147671.91;;;1.39;78.17
33422;BME280;19763;55.798;37.782;2023-01-31T12:11:55;147685.91;;;1.45;78.57
33422;BME280;19763;55.798;37.782;2023-01-31T12:14:22;147683.34;;;1.44;78.84
33422;BME280;19763;55.798;37.782;2023-01-31T12:16:53;147646.47;;;1.29;78.17
33422;BME280;19763;55.798;37.782;2023-01-31T12:19:26;147684.66;;;1.44;78.28
33422;BME280;19763;55.798;37.782;2023-01-31T12:22:13;147661.72;;;1.35;78.46
33422;BME280;19763;55.798;37.782;2023-01-31T12:38:39;147671.91;;;1.39;79.42
33422;BME280;19763;55.798;37.782;2023-01-31T12:58:44;147631.16;;;1.23;80.07
33422;BME280;19763;55.798;37.782;2023-01-31T13:01:16;147629.91;;;1.22;80.57
33422;BME280;19763;55.798;37.782;2023-01-31T13:06:12;147619.72;;;1.18;80.23
33422;BME280;19763;55.798;37.782;2023-01-31T13:08:48;147573.91;;;0.99;79.95
33422;BME280;19763;55.798;37.782;2023-01-31T13:11:23;147587.91;;;1.05;80.50
33422;BME280;19763;55.798;37.782;2023-01-31T13:14:02;147581.53;;;1.02;80.52
33422;BME280;19763;55.798;37.782;2023-01-31T13:16:39;147645.16;;;1.28;80.44
33422;BME280;19763;55.798;37.782;2023-01-31T13:19:17;147603.19;;;1.11;80.69
33422;BME280;19763;55.798;37.782;2023-01-31T13:21:46;147628.66;;;1.22;80.13
33422;BME280;19763;55.798;37.782;2023-01-31T13:24:27;147601.91;;;1.11;79.92
33422;BME280;19763;55.798;37.782;2023-01-31T13:27:01;147647.72;;;1.29;80.37
33422;BME280;19763;55.798;37.782;2023-01-31T13:29:35;147613.34;;;1.15;80.39
33422;BME280;19763;55.798;37.782;2023-01-31T13:32:27;147631.16;;;1.23;80.28
33422;BME280;19763;55.798;37.782;2023-01-31T13:35:01;147652.84;;;1.31;80.59
33422;BME280;19763;55.798;37.782;2023-01-31T13:37:29;147600.66;;;1.10;80.30
33422;BME280;19763;55.798;37.782;2023-01-31T13:40:03;147603.19;;;1.11;80.73
33422;BME280;19763;55.798;37.782;2023-01-31T13:42:31;147577.72;;;1.01;80.39
33422;BME280;19763;55.798;37.782;2023-01-31T13:45:03;147617.22;;;1.17;80.21
33422;BME280;19763;55.798;37.782;2023-01-31T13:47:57;147590.47;;;1.06;80.45
33422;BME280;19763;55.798;37.782;2023-01-31T13:50:43;147600.66;;;1.10;80.41
33422;BME280;19763;55.798;37.782;2023-01-31T13:53:20;147642.66;;;1.27;80.13
33422;BME280;19763;55.798;37.782;2023-01-31T13:55:49;147664.28;;;1.36;79.51
33422;BME280;19763;55.798;37.782;2023-01-31T13:58:29;147637.53;;;1.25;80.00
33422;BME280;19763;55.798;37.782;2023-01-31T14:01:11;147645.16;;;1.28;79.45
33422;BME280;19763;55.798;37.782;2023-01-31T14:09:27;147652.84;;;1.31;79.94
33422;BME280;19763;55.798;37.782;2023-01-31T14:12:10;147615.91;;;1.16;79.91
33422;BME280;19763;55.798;37.782;2023-01-31T14:22:26;147694.84;;;1.48;79.96
33422;BME280;19763;55.798;37.782;2023-01-31T14:24:58;147685.91;;;1.45;79.13
33422;BME280;19763;55.798;37.782;2023-01-31T14:27:31;147697.34;;;1.49;78.79
33422;BME280;19763;55.798;37.782;2023-01-31T14:32:48;147711.34;;;1.55;79.14
33422;BME280;19763;55.798;37.782;2023-01-31T14:57:50;147626.09;;;1.20;79.42
33422;BME280;19763;55.798;37.782;2023-01-31T15:03:14;147684.66;;;1.44;79.47
33422;BME280;19763;55.798;37.782;2023-01-31T15:05:44;147684.66;;;1.44;79.21
33422;BME280;19763;55.798;37.782;2023-01-31T15:11:00;147683.34;;;1.44;80.13
33422;BME280;19763;55.798;37.782;2023-01-31T15:13:54;147613.34;;;1.15;79.98
33422;BME280;19763;55.798;37.782;2023-01-31T15:16:32;147621.03;;;1.18;80.64
33422;BME280;19763;55.798;37.782;2023-01-31T15:19:16;147631.16;;;1.23;80.93
33422;BME280;19763;55.798;37.782;2023-01-31T15:21:50;147670.66;;;1.38;80.67
33422;BME280;19763;55.798;37.782;2023-01-31T15:24:38;147670.66;;;1.38;80.06